Time;durP1;ratioP1;P1;durP2;ratioP2;P2;SDS_P1;SDS_P2;PMS_P1;PMS_P2;Temp;Humidity;BMP_temperature;BMP_pressure;BME280_temperature;BME280_humidity;BME280_pressure;Samples;Min_cycle;Max_cycle;Signal;HPM_P1;HPM_P2
2024/04/05 00:01:28;;;;;;;15.63;6.30;;;12.50;99.90;;;12.45;100.00;98642.25;5067995;28;20455;-71
2024/04/05 00:03:56;;;;;;;12.00;5.47;;;12.50;99.90;;;12.43;100.00;98645.06;5071122;28;20452;-70
2024/04/05 00:06:22;;;;;;;12.97;5.50;;;12.50;99.90;;;12.43;100.00;98647.69;5073574;28;20792;-69
2024/04/05 00:08:48;;;;;;;18.63;7.50;;;12.50;99.90;;;12.48;100.00;98648.13;5064159;28;20474;-70
2024/04/05 00:11:15;;;;;;;9.37;4.73;;;12.50;99.90;;;12.43;100.00;98647.69;5082189;28;20552;-70
2024/04/05 00:13:41;;;;;;;10.73;4.93;;;12.50;99.90;;;12.54;100.00;98649.34;5056864;28;20477;-70
2024/04/05 00:16:07;;;;;;;8.30;3.83;;;12.60;99.90;;;12.55;100.00;98650.16;5071792;28;20453;-70
2024/04/05 00:18:34;;;;;;;10.70;5.47;;;12.60;99.90;;;12.61;100.00;98645.19;5057517;28;20207;-70
2024/04/05 00:21:04;;;;;;;17.67;5.13;;;12.60;99.90;;;12.65;100.00;98646.56;5068739;28;20444;-69
2024/04/05 00:23:31;;;;;;;10.57;5.20;;;12.60;99.90;;;12.70;100.00;98649.63;5079642;28;20449;-70
2024/04/05 00:25:59;;;;;;;10.40;4.70;;;12.60;99.90;;;12.72;100.00;98641.56;5061682;28;20460;-69
2024/04/05 00:28:27;;;;;;;12.20;4.83;;;12.70;99.90;;;12.78;100.00;98635.75;5062209;28;20528;-70
2024/04/05 00:30:53;;;;;;;11.83;4.63;;;12.70;99.90;;;12.82;100.00;98634.50;5066996;28;20451;-70
2024/04/05 00:33:18;;;;;;;9.90;4.57;;;12.70;99.90;;;12.83;100.00;98630.91;5076086;28;20498;-70
2024/04/05 00:35:52;;;;;;;9.37;4.90;;;12.70;99.90;;;12.82;100.00;98638.94;5067620;28;20456;-70
2024/04/05 00:38:19;;;;;;;11.10;4.97;;;12.80;99.90;;;12.88;100.00;98633.09;5074756;28;20194;-70
2024/04/05 00:40:45;;;;;;;10.23;4.50;;;12.70;99.90;;;12.89;100.00;98630.34;5072379;28;21013;-70
2024/04/05 00:43:12;;;;;;;9.30;3.57;;;12.70;99.90;;;12.88;100.00;98625.19;5073512;28;20480;-70
2024/04/05 00:45:39;;;;;;;9.80;4.37;;;12.80;99.90;;;12.83;100.00;98625.63;5079060;28;20455;-70
2024/04/05 00:48:06;;;;;;;11.20;4.27;;;12.70;99.90;;;12.84;100.00;98616.75;5066861;28;20478;-70
2024/04/05 00:50:34;;;;;;;9.97;4.63;;;12.70;99.90;;;12.83;100.00;98609.81;5059772;28;20539;-70
2024/04/05 00:53:01;;;;;;;12.13;5.60;;;12.70;99.90;;;12.74;100.00;98614.13;5076084;28;20437;-70
2024/04/05 00:55:29;;;;;;;11.73;5.00;;;12.80;99.90;;;12.76;100.00;98608.69;5074326;28;20449;-69
2024/04/05 00:58:03;;;;;;;12.73;4.77;;;12.70;99.90;;;12.76;100.00;98614.78;5071747;28;20498;-70
2024/04/05 01:00:28;;;;;;;9.67;4.00;;;12.70;99.90;;;12.76;100.00;98612.16;5072033;28;20510;-70
2024/04/05 01:02:55;;;;;;;9.20;4.90;;;12.70;99.90;;;12.74;100.00;98621.19;5078693;28;20455;-70
2024/04/05 01:05:21;;;;;;;8.37;4.30;;;12.70;99.90;;;12.73;100.00;98622.97;5081835;28;20255;-70
2024/04/05 01:07:52;;;;;;;8.23;3.90;;;12.70;99.90;;;12.74;100.00;98616.75;5091409;28;20482;-70
2024/04/05 01:10:21;;;;;;;7.60;3.60;;;12.70;99.90;;;12.79;100.00;98616.31;5087627;28;20454;-70
2024/04/05 01:13:05;;;;;;;5.10;3.37;;;12.60;99.90;;;12.80;100.00;98617.16;5079956;28;21013;-70
2024/04/05 01:15:32;;;;;;;6.00;3.63;;;12.70;99.90;;;12.83;100.00;98609.81;5068557;28;20435;-70
2024/04/05 01:18:02;;;;;;;6.83;3.37;;;12.70;99.90;;;12.87;100.00;98613.81;5083140;28;20446;-69
2024/04/05 01:20:32;;;;;;;7.03;3.47;;;12.70;99.90;;;12.87;100.00;98605.91;5074125;28;21046;-70
2024/04/05 01:23:07;;;;;;;8.33;4.20;;;12.70;99.90;;;12.83;100.00;98603.69;5079379;28;20476;-71
2024/04/05 01:25:34;;;;;;;8.30;4.27;;;12.70;99.90;;;12.82;100.00;98617.84;5057953;28;20438;-70
2024/04/05 01:28:03;;;;;;;10.93;4.20;;;12.60;99.90;;;12.79;100.00;98616.31;5059699;28;20458;-71
2024/04/05 01:30:28;;;;;;;7.57;4.07;;;12.60;99.90;;;12.72;100.00;98616.06;5090476;28;20452;-71
2024/04/05 01:32:59;;;;;;;11.20;4.57;;;12.60;99.90;;;12.63;100.00;98619.53;5078024;28;20439;-70
2024/04/05 01:35:29;;;;;;;7.77;3.90;;;12.60;99.90;;;12.62;100.00;98615.25;5073492;28;20212;-71
2024/04/05 01:37:56;;;;;;;9.87;3.83;;;12.50;99.90;;;12.60;100.00;98616.34;5077143;28;20448;-72
2024/04/05 01:40:23;;;;;;;7.93;3.80;;;12.50;99.90;;;12.60;100.00;98616.34;5096415;28;20451;-70
2024/04/05 01:42:49;;;;;;;6.27;3.60;;;12.50;99.90;;;12.58;100.00;98615.63;5077883;28;20488;-69
2024/04/05 01:45:15;;;;;;;7.27;3.57;;;12.50;99.90;;;12.52;100.00;98623.16;5068741;28;20442;-70
2024/04/05 01:47:40;;;;;;;7.10;4.30;;;12.40;99.90;;;12.47;100.00;98614.81;5070617;28;21172;-70
2024/04/05 01:50:07;;;;;;;8.77;4.77;;;12.40;99.90;;;12.43;100.00;98623.16;5071754;28;20189;-70
2024/04/05 01:52:33;;;;;;;9.40;4.53;;;12.30;99.90;;;12.40;100.00;98620.78;5074127;28;20276;-70
2024/04/05 01:54:59;;;;;;;7.00;4.37;;;12.30;99.90;;;12.35;100.00;98620.38;5071240;28;20593;-70
2024/04/05 01:57:26;;;;;;;7.00;4.13;;;12.30;99.90;;;12.29;100.00;98614.69;5076234;28;20456;-69
2024/04/05 01:59:54;;;;;;;6.50;4.20;;;12.20;99.90;;;12.24;100.00;98619.53;5076096;28;20454;-69
2024/04/05 02:02:21;;;;;;;6.57;4.03;;;12.10;99.90;;;12.25;100.00;98626.47;5089662;28;20492;-70
2024/04/05 02:04:52;;;;;;;7.57;4.23;;;12.10;99.90;;;12.18;100.00;98624.53;5076193;28;20494;-71
2024/04/05 02:07:20;;;;;;;8.20;3.73;;;12.10;99.90;;;12.15;100.00;98632.69;5074857;28;20607;-70
2024/04/05 02:09:51;;;;;;;5.70;3.70;;;12.10;99.90;;;12.08;100.00;98629.78;5056445;28;20440;-69
2024/04/05 02:12:18;;;;;;;12.70;4.67;;;12.00;99.90;;;12.05;100.00;98630.06;5075433;28;20449;-70
2024/04/05 02:14:44;;;;;;;19.60;4.33;;;12.00;99.90;;;11.97;100.00;98635.16;5077181;28;20447;-71
2024/04/05 02:17:10;;;;;;;6.70;4.33;;;11.90;99.90;;;11.91;100.00;98623.34;5069795;28;20449;-71
2024/04/05 02:19:37;;;;;;;9.93;5.03;;;11.90;99.90;;;11.93;100.00;98629.31;5076827;28;20550;-70
2024/04/05 02:22:02;;;;;;;8.03;4.30;;;11.90;99.90;;;11.91;100.00;98628.63;5059641;28;20959;-71
2024/04/05 02:24:28;;;;;;;8.80;4.50;;;11.90;99.90;;;11.85;100.00;98625.69;5071138;28;20930;-70
2024/04/05 02:26:54;;;;;;;8.60;5.13;;;11.80;99.90;;;11.75;100.00;98630.91;5072483;28;20196;-70
2024/04/05 02:29:20;;;;;;;9.53;4.27;;;11.80;99.90;;;11.70;100.00;98626.06;5075498;28;20721;-70
2024/04/05 02:31:48;;;;;;;8.57;4.30;;;11.70;99.90;;;11.73;100.00;98630.22;5076600;28;20191;-71
2024/04/05 02:34:13;;;;;;;8.97;4.47;;;11.70;99.90;;;11.68;100.00;98620.09;5071247;28;20199;-71
2024/04/05 02:36:39;;;;;;;10.67;5.57;;;11.70;99.90;;;11.53;100.00;98624.88;5080558;28;20811;-69
2024/04/05 02:39:06;;;;;;;9.63;5.20;;;11.70;99.90;;;11.54;100.00;98623.94;5057452;28;20187;-70
2024/04/05 02:41:32;;;;;;;10.60;4.93;;;11.60;99.90;;;11.52;100.00;98627.66;5059579;28;20211;-71
2024/04/05 02:43:58;;;;;;;11.50;4.77;;;11.60;99.90;;;11.50;100.00;98622.50;5077026;28;20654;-71
2024/04/05 02:46:24;;;;;;;6.70;3.93;;;11.60;99.90;;;11.51;100.00;98624.19;5084966;28;20446;-70
2024/04/05 02:48:51;;;;;;;8.20;4.40;;;11.50;99.90;;;11.53;100.00;98622.25;5069845;28;20468;-71
2024/04/05 02:51:18;;;;;;;6.60;4.53;;;11.50;99.90;;;11.56;100.00;98621.16;5071411;28;20441;-69
2024/04/05 02:53:44;;;;;;;9.23;4.70;;;11.50;99.90;;;11.49;100.00;98626.09;5074052;28;20453;-70
2024/04/05 02:56:11;;;;;;;8.30;4.40;;;11.50;99.90;;;11.48;100.00;98628.88;5070028;28;20441;-70
2024/04/05 02:58:37;;;;;;;8.37;4.50;;;11.50;99.90;;;11.46;100.00;98630.81;5072511;28;20452;-70
2024/04/05 03:01:03;;;;;;;6.90;3.73;;;11.40;99.90;;;11.45;100.00;98627.34;5076756;28;20519;-70
2024/04/05 03:03:29;;;;;;;6.67;4.37;;;11.40;99.90;;;11.39;100.00;98630.50;5062133;28;20463;-70
2024/04/05 03:05:55;;;;;;;9.47;4.87;;;11.10;99.90;;;11.37;100.00;98633.25;5091118;28;21025;-70
2024/04/05 03:08:21;;;;;;;8.33;4.50;;;11.30;99.90;;;11.35;100.00;98640.47;5075669;28;20208;-71
2024/04/05 03:10:46;;;;;;;9.93;5.10;;;11.30;99.90;;;11.34;100.00;98632.69;5069153;28;20186;-71
2024/04/05 03:13:13;;;;;;;8.30;4.50;;;11.30;99.90;;;11.30;100.00;98626.84;5078590;28;20187;-71
2024/04/05 03:15:39;;;;;;;10.70;4.70;;;11.30;99.90;;;11.21;100.00;98626.81;5073142;28;20564;-70
2024/04/05 03:18:05;;;;;;;8.53;4.93;;;11.20;99.90;;;11.20;100.00;98622.53;5074455;28;20603;-70
2024/04/05 03:20:30;;;;;;;8.77;4.50;;;11.20;99.90;;;11.11;100.00;98632.84;5055880;28;20446;-70
2024/04/05 03:22:56;;;;;;;8.53;4.20;;;11.20;99.90;;;11.10;100.00;98620.69;5070820;28;20218;-70
2024/04/05 03:25:22;;;;;;;8.10;4.40;;;11.10;99.90;;;11.12;100.00;98623.16;5071467;28;20194;-69
2024/04/05 03:27:49;;;;;;;8.43;4.20;;;11.10;99.90;;;11.08;100.00;98619.97;5076987;28;20206;-71
2024/04/05 03:30:15;;;;;;;9.37;5.00;;;11.10;99.90;;;11.09;100.00;98618.16;5073907;28;20211;-70
2024/04/05 03:32:41;;;;;;;5.90;4.17;;;11.10;99.90;;;11.10;100.00;98604.91;5081701;28;20447;-70
2024/04/05 03:35:07;;;;;;;7.40;4.33;;;11.10;99.90;;;11.11;100.00;98603.94;5069355;28;21761;-70
2024/04/05 03:37:33;;;;;;;8.67;4.67;;;11.00;99.90;;;11.09;100.00;98605.84;5096982;28;20192;-70
2024/04/05 03:40:00;;;;;;;7.23;4.30;;;11.00;99.90;;;11.09;100.00;98603.22;5091739;28;20251;-69
2024/04/05 03:42:26;;;;;;;6.93;4.77;;;11.00;99.90;;;11.06;100.00;98592.97;5072493;28;20436;-70
2024/04/05 03:44:52;;;;;;;9.57;5.23;;;11.00;99.90;;;10.99;100.00;98586.59;5081887;28;20449;-71
2024/04/05 03:47:18;;;;;;;9.20;5.20;;;11.00;99.90;;;10.94;100.00;98601.94;5078666;28;20497;-70
2024/04/05 03:49:43;;;;;;;7.90;4.90;;;11.00;99.90;;;10.94;100.00;98591.41;5076890;28;20192;-69
2024/04/05 03:52:09;;;;;;;8.63;4.10;;;11.00;99.90;;;10.98;100.00;98590.19;5061638;28;20464;-69
2024/04/05 03:54:35;;;;;;;7.20;4.60;;;10.90;99.90;;;10.93;100.00;98589.72;5089342;28;20856;-69
2024/04/05 03:57:01;;;;;;;12.37;7.17;;;10.90;99.90;;;10.89;100.00;98589.16;5065566;28;20440;-69
2024/04/05 03:59:26;;;;;;;9.23;6.03;;;10.90;99.90;;;10.91;100.00;98599.56;5060468;28;20177;-71
2024/04/05 04:01:54;;;;;;;9.00;6.03;;;10.90;99.90;;;10.90;100.00;98608.38;5081253;28;20208;-69
2024/04/05 04:04:19;;;;;;;8.27;5.40;;;10.90;99.90;;;10.93;100.00;98604.66;5058873;28;20222;-70
2024/04/05 04:06:46;;;;;;;6.83;4.80;;;10.90;99.90;;;10.93;100.00;98612.56;5076792;28;20857;-69
2024/04/05 04:09:12;;;;;;;9.33;5.40;;;10.90;99.90;;;10.87;100.00;98612.09;5075323;28;20344;-70
2024/04/05 04:11:38;;;;;;;8.77;5.50;;;10.90;99.90;;;10.83;100.00;98612.50;5071282;28;20482;-70
2024/04/05 04:14:04;;;;;;;8.83;5.73;;;10.90;99.90;;;10.80;100.00;98608.31;5069871;28;20184;-70
2024/04/05 04:16:31;;;;;;;9.87;5.20;;;10.80;99.90;;;10.78;100.00;98614.66;5051925;28;20436;-70
2024/04/05 04:18:57;;;;;;;10.73;5.40;;;10.80;99.90;;;10.76;100.00;98611.34;5072178;28;20194;-70
2024/04/05 04:21:25;;;;;;;8.07;5.30;;;10.70;99.90;;;10.74;100.00;98606.22;5084878;28;20460;-69
2024/04/05 04:23:52;;;;;;;9.43;5.03;;;11.70;99.90;;;10.71;100.00;98601.22;5059229;28;20458;-71
2024/04/05 04:26:20;;;;;;;8.07;4.53;;;10.70;99.90;;;10.65;100.00;98593.84;5074428;28;20438;-70
2024/04/05 04:28:47;;;;;;;10.03;4.87;;;10.70;99.90;;;10.58;100.00;98595.31;5064522;28;20473;-69
2024/04/05 04:31:22;;;;;;;9.10;5.10;;;10.70;99.90;;;10.46;100.00;98594.53;5070549;28;20501;-70
2024/04/05 04:33:49;;;;;;;5.83;4.10;;;10.60;99.90;;;10.43;100.00;98593.03;5066306;28;20456;-69
2024/04/05 04:36:15;;;;;;;9.20;4.83;;;10.50;99.90;;;10.39;100.00;98598.63;5070743;28;20815;-69
2024/04/05 04:38:41;;;;;;;8.33;4.47;;;10.50;99.90;;;10.41;100.00;98602.81;5074652;28;20446;-69
2024/04/05 04:41:06;;;;;;;7.93;5.00;;;10.50;99.90;;;10.43;100.00;98589.53;5052176;28;20187;-69
2024/04/05 04:43:32;;;;;;;8.37;5.00;;;10.50;99.90;;;10.44;100.00;98585.97;5060307;28;20197;-67
2024/04/05 04:45:59;;;;;;;13.43;6.10;;;10.40;99.90;;;10.44;100.00;98583.34;5063860;28;20219;-67
2024/04/05 04:48:28;;;;;;;10.73;5.90;;;10.40;99.90;;;10.44;100.00;98580.72;5061907;28;20204;-67
2024/04/05 04:50:54;;;;;;;9.20;5.57;;;10.40;99.90;;;10.34;100.00;98585.03;5064955;28;20459;-67
2024/04/05 04:53:22;;;;;;;9.93;5.70;;;10.40;99.90;;;10.35;100.00;98587.56;5071508;28;20448;-68
2024/04/05 04:55:48;;;;;;;9.50;5.40;;;10.40;99.90;;;10.32;100.00;98592.22;5077320;28;20449;-69
2024/04/05 04:58:17;;;;;;;8.63;5.57;;;10.40;99.90;;;10.27;100.00;98586.50;5067702;28;20450;-69
2024/04/05 05:00:45;;;;;;;9.50;6.30;;;10.30;99.90;;;10.23;100.00;98583.28;5055750;28;20587;-67
2024/04/05 05:03:11;;;;;;;11.60;6.60;;;10.30;99.90;;;10.28;100.00;98591.66;5095470;28;20455;-67
2024/04/05 05:05:38;;;;;;;15.53;7.20;;;10.30;99.90;;;10.30;100.00;98597.59;5071293;28;20498;-68
2024/04/05 05:08:05;;;;;;;10.10;6.33;;;10.30;99.90;;;10.29;100.00;98597.72;5061720;28;20804;-68
2024/04/05 05:10:31;;;;;;;10.77;5.90;;;10.30;99.90;;;10.27;100.00;98597.00;5064610;28;20436;-68
2024/04/05 05:12:59;;;;;;;14.37;6.60;;;10.30;99.90;;;10.27;100.00;98603.09;5078276;28;20457;-69
2024/04/05 05:15:26;;;;;;;12.80;6.83;;;10.30;99.90;;;10.28;100.00;98593.44;5064806;28;20575;-69
2024/04/05 05:17:52;;;;;;;11.20;6.20;;;10.20;99.90;;;10.27;100.00;98597.00;5048850;28;20489;-69
2024/04/05 05:20:22;;;;;;;12.10;6.90;;;10.20;99.90;;;10.29;100.00;98600.34;5060472;28;20484;-68
2024/04/05 05:22:48;;;;;;;13.00;6.47;;;10.20;99.90;;;10.32;100.00;98603.56;5063803;28;20648;-68
2024/04/05 05:25:16;;;;;;;19.57;6.87;;;10.30;99.90;;;10.34;100.00;98608.66;5062065;28;20461;-70
2024/04/05 05:27:42;;;;;;;16.53;7.03;;;10.30;99.90;;;10.56;100.00;98605.97;5067790;28;20481;-70
2024/04/05 05:30:08;;;;;;;13.57;8.33;;;10.40;99.90;;;10.85;100.00;98611.41;5062041;28;21135;-69
2024/04/05 05:32:34;;;;;;;10.27;6.77;;;10.40;99.90;;;10.98;100.00;98600.69;5060406;28;20201;-69
2024/04/05 05:34:59;;;;;;;12.47;6.57;;;10.60;99.90;;;10.93;100.00;98597.63;5060487;28;20484;-69
2024/04/05 05:37:25;;;;;;;10.33;6.27;;;10.60;99.90;;;11.05;100.00;98598.38;5058253;28;20614;-68
2024/04/05 05:39:51;;;;;;;10.97;6.03;;;10.70;99.90;;;11.41;100.00;98586.47;5075148;28;20202;-70
2024/04/05 05:42:16;;;;;;;11.17;6.30;;;10.90;99.90;;;11.80;100.00;98579.53;5073252;28;20206;-70
2024/04/05 05:44:42;;;;;;;9.53;5.97;;;11.20;99.90;;;12.28;100.00;98585.84;5068235;28;20596;-70
2024/04/05 05:47:08;;;;;;;11.80;7.03;;;11.50;99.90;;;12.95;95.22;98586.72;5069444;28;20192;-68
2024/04/05 05:49:33;;;;;;;11.47;5.90;;;11.90;99.90;;;13.82;94.56;98582.94;5073098;28;20196;-68
2024/04/05 05:51:59;;;;;;;11.83;5.30;;;12.20;99.90;;;14.57;89.46;98575.56;5066499;28;20265;-69
2024/04/05 05:54:25;;;;;;;8.47;5.63;;;12.70;99.90;;;15.18;86.49;98572.00;5069404;28;20192;-68
2024/04/05 05:56:53;;;;;;;7.47;5.33;;;13.10;99.90;;;16.21;82.06;98569.22;5071565;28;20333;-69
2024/04/05 05:59:19;;;;;;;8.90;5.97;;;13.60;99.90;;;16.81;77.61;98579.50;5054707;28;20198;-68
2024/04/05 06:01:45;;;;;;;8.07;4.47;;;14.20;99.90;;;16.60;71.07;98579.97;5063736;28;20455;-68
2024/04/05 06:04:10;;;;;;;8.47;4.70;;;14.60;99.90;;;16.46;72.47;98570.06;5089058;27;20604;-69
2024/04/05 06:06:37;;;;;;;8.73;4.57;;;15.00;99.90;;;16.33;72.28;98580.31;5069524;28;20264;-69
2024/04/05 06:09:06;;;;;;;6.70;4.40;;;15.40;99.90;;;16.05;72.60;98575.31;5060093;28;20270;-68
2024/04/05 06:11:33;;;;;;;9.50;5.33;;;15.40;99.90;;;15.80;72.56;98570.97;5092869;28;20449;-69
2024/04/05 06:13:58;;;;;;;7.03;5.00;;;15.40;99.90;;;15.20;75.24;98566.56;5065665;28;20440;-69
2024/04/05 06:16:24;;;;;;;6.10;4.10;;;15.30;99.90;;;14.88;77.19;98564.53;5057936;28;20440;-69
2024/04/05 06:18:50;;;;;;;8.73;4.60;;;15.10;99.90;;;14.52;79.13;98560.16;5071800;28;20193;-69
2024/04/05 06:21:16;;;;;;;6.23;4.00;;;14.90;99.90;;;14.36;80.79;98554.72;5069933;28;20216;-68
2024/04/05 06:23:42;;;;;;;8.17;4.20;;;14.70;99.90;;;14.18;81.27;98551.25;5071581;28;20239;-67
2024/04/05 06:26:07;;;;;;;9.10;4.17;;;14.50;99.90;;;14.08;82.24;98546.03;5086117;28;20190;-68
2024/04/05 06:28:35;;;;;;;6.70;4.20;;;14.20;99.90;;;14.02;82.47;98539.56;5076104;28;20483;-69
2024/04/05 06:31:02;;;;;;;6.67;4.80;;;14.10;99.90;;;13.94;83.50;98530.75;5066686;28;20182;-69
2024/04/05 06:33:29;;;;;;;7.13;4.60;;;14.00;99.90;;;13.81;84.10;98539.84;5073804;28;20439;-69
2024/04/05 06:36:02;;;;;;;7.93;4.53;;;13.90;99.90;;;13.48;85.75;98529.91;5071614;28;20435;-69
2024/04/05 06:38:29;;;;;;;5.70;4.10;;;13.80;99.90;;;13.43;87.12;98530.38;5068671;28;20455;-69
2024/04/05 06:40:59;;;;;;;6.87;4.20;;;13.60;99.90;;;13.45;87.82;98538.94;5069504;28;20456;-69
2024/04/05 06:43:30;;;;;;;9.47;4.53;;;13.50;99.90;;;13.37;88.40;98530.97;5069611;28;20453;-69
2024/04/05 06:46:00;;;;;;;6.77;4.20;;;13.40;99.90;;;13.27;90.65;98522.25;5077794;28;20969;-69
2024/04/05 06:48:27;;;;;;;7.27;4.50;;;13.40;99.90;;;13.19;91.81;98526.41;5059227;28;20475;-68
2024/04/05 06:50:53;;;;;;;7.77;5.27;;;13.30;99.90;;;13.20;94.04;98516.69;5068665;28;20528;-69
2024/04/05 06:53:21;;;;;;;6.67;4.77;;;13.30;99.90;;;13.25;94.08;98530.31;5090851;28;20448;-69
2024/04/05 06:55:48;;;;;;;6.63;4.40;;;13.30;99.90;;;13.28;93.07;98522.13;5097614;28;20444;-69
2024/04/05 06:58:15;;;;;;;7.00;4.20;;;13.20;99.90;;;13.26;93.09;98531.97;5065220;28;20617;-69
2024/04/05 07:00:41;;;;;;;6.30;4.20;;;13.20;99.90;;;13.33;93.38;98530.41;5069283;28;20450;-70
2024/04/05 07:03:07;;;;;;;7.37;5.00;;;13.20;99.90;;;13.42;93.18;98539.25;5068976;28;20447;-69
2024/04/05 07:05:33;;;;;;;6.23;4.50;;;13.20;99.90;;;13.43;92.05;98540.94;5061447;28;20496;-69
2024/04/05 07:08:00;;;;;;;6.73;4.50;;;13.30;99.90;;;13.56;93.41;98541.41;5057530;28;20209;-69
2024/04/05 07:10:27;;;;;;;7.33;4.40;;;13.30;99.90;;;13.76;93.12;98536.00;5072366;28;20186;-69
2024/04/05 07:12:54;;;;;;;14.67;5.20;;;13.40;99.90;;;14.01;92.19;98529.16;5078766;28;20483;-69
2024/04/05 07:15:21;;;;;;;6.07;4.43;;;13.50;99.90;;;14.35;91.23;98527.47;5097961;28;20474;-68
2024/04/05 07:17:54;;;;;;;8.23;4.97;;;13.70;99.90;;;14.73;89.08;98514.88;5073512;28;20486;-69
2024/04/05 07:20:24;;;;;;;8.77;5.00;;;13.90;99.90;;;15.10;87.83;98508.47;5070283;28;20964;-69
2024/04/05 07:22:52;;;;;;;9.67;6.40;;;14.20;99.90;;;15.52;83.32;98497.84;5067671;28;20474;-69
2024/04/05 07:25:23;;;;;;;9.60;5.30;;;14.50;99.90;;;15.67;81.09;98482.22;5076002;28;21005;-70
2024/04/05 07:27:54;;;;;;;7.47;4.30;;;14.80;99.90;;;16.00;82.73;98482.25;5070131;28;20475;-69
2024/04/05 07:30:22;;;;;;;7.67;4.80;;;15.10;99.90;;;16.33;80.04;98483.06;5061551;28;20502;-70
2024/04/05 07:32:51;;;;;;;10.03;5.30;;;15.40;99.90;;;16.66;79.60;98491.78;5097551;28;20456;-69
2024/04/05 07:35:19;;;;;;;7.20;5.00;;;15.70;99.90;;;17.16;77.80;98497.00;5067422;28;20455;-69
2024/04/05 07:37:49;;;;;;;7.50;4.30;;;16.10;99.90;;;17.73;76.68;98507.34;5069916;28;20887;-70
2024/04/05 07:40:23;;;;;;;6.10;3.97;;;16.50;99.90;;;18.35;73.04;98506.41;5067877;28;20448;-69
2024/04/05 07:43:00;;;;;;;6.63;4.00;;;17.00;99.90;;;18.72;70.90;98505.56;5100347;28;20479;-69
2024/04/05 07:45:27;;;;;;;5.73;4.00;;;17.40;99.90;;;19.08;69.33;98503.03;5067882;28;20469;-68
2024/04/05 07:47:52;;;;;;;8.10;3.87;;;17.80;99.90;;;19.51;67.95;98510.31;5060687;28;21133;-69
2024/04/05 07:50:19;;;;;;;7.20;3.83;;;18.20;99.90;;;19.83;66.48;98503.75;5066179;28;20452;-68
2024/04/05 07:52:48;;;;;;;9.13;4.53;;;18.60;99.90;;;20.08;65.78;98489.06;5062780;28;20186;-67
2024/04/05 07:55:14;;;;;;;6.10;3.57;;;18.80;99.90;;;20.35;65.31;98486.59;5069533;28;20451;-67
2024/04/05 07:57:40;;;;;;;7.30;4.00;;;19.20;99.90;;;20.55;63.33;98494.78;5085561;28;20443;-67
2024/04/05 08:00:13;;;;;;;6.40;3.80;;;19.40;99.90;;;20.73;63.53;98503.13;5065777;28;20190;-67
2024/04/05 08:02:49;;;;;;;8.00;4.50;;;19.70;99.90;;;20.86;62.84;98515.75;5068258;28;20479;-67
2024/04/05 08:05:15;;;;;;;6.90;3.50;;;19.80;99.90;;;20.91;63.39;98515.16;5069062;28;20483;-67
2024/04/05 08:07:42;;;;;;;4.90;2.87;;;20.00;99.90;;;20.62;62.26;98511.69;5074530;28;20467;-67
2024/04/05 08:10:09;;;;;;;4.83;2.90;;;20.10;99.90;;;20.52;61.83;98506.69;5068115;28;20456;-67
2024/04/05 08:12:39;;;;;;;7.00;2.63;;;20.00;99.90;;;20.12;60.87;98500.16;5064969;28;21021;-68
2024/04/05 08:15:09;;;;;;;5.70;3.00;;;19.90;99.90;;;19.83;61.79;98499.25;5102189;27;20844;-68
2024/04/05 08:17:35;;;;;;;5.37;2.80;;;19.80;99.90;;;19.20;63.13;98495.44;5069148;28;21151;-68
2024/04/05 08:20:01;;;;;;;5.20;2.80;;;19.50;99.90;;;18.78;65.54;98491.56;5098021;27;20448;-68
2024/04/05 08:22:27;;;;;;;5.40;2.67;;;19.20;99.90;;;18.81;66.51;98491.19;5066417;28;20534;-68
2024/04/05 08:24:52;;;;;;;4.80;2.70;;;19.00;99.90;;;18.48;63.77;98488.03;5071907;28;20673;-69
2024/04/05 08:27:18;;;;;;;8.40;3.50;;;18.80;99.90;;;18.14;64.94;98488.47;5071219;28;20189;-68
2024/04/05 08:29:44;;;;;;;7.13;3.70;;;18.50;99.90;;;17.99;64.06;98491.91;5069169;28;20258;-68
2024/04/05 08:32:09;;;;;;;7.10;3.87;;;18.30;99.90;;;17.92;63.33;98493.63;5076867;28;20694;-68
2024/04/05 08:34:35;;;;;;;6.63;4.17;;;18.10;99.90;;;17.89;65.19;98490.50;5068726;28;20213;-68
2024/04/05 08:37:04;;;;;;;5.10;3.10;;;18.00;99.90;;;18.13;64.64;98492.16;5068087;28;20650;-68
2024/04/05 08:39:29;;;;;;;5.53;3.00;;;18.00;99.90;;;18.42;65.53;98486.91;5069142;28;20263;-68
2024/04/05 08:42:14;;;;;;;7.27;3.30;;;18.10;99.90;;;18.54;63.21;98479.31;5073589;28;20564;-68
2024/04/05 08:44:47;;;;;;;4.90;2.57;;;18.20;99.90;;;18.94;63.89;98486.03;5057051;28;20703;-68
2024/04/05 08:47:13;;;;;;;4.77;2.40;;;18.40;99.90;;;19.16;59.91;98481.63;5067967;28;20452;-68
2024/04/05 08:49:39;;;;;;;6.20;2.50;;;18.60;99.90;;;19.11;59.50;98473.41;5069120;28;20450;-68
2024/04/05 08:52:06;;;;;;;4.90;2.70;;;18.80;99.90;;;19.36;60.22;98483.75;5067916;28;20494;-68
2024/04/05 08:54:32;;;;;;;4.87;2.90;;;18.90;99.90;;;19.68;58.84;98487.81;5067165;28;20468;-68
2024/04/05 08:57:01;;;;;;;4.80;2.60;;;19.10;99.90;;;19.61;56.85;98498.38;5051731;28;20440;-67
2024/04/05 08:59:32;;;;;;;4.73;2.60;;;19.30;99.90;;;19.35;56.25;98495.38;5063331;28;20481;-70
2024/04/05 09:02:00;;;;;;;4.77;2.87;;;19.30;99.90;;;19.57;59.08;98496.25;5066620;28;20457;-68
2024/04/05 09:04:26;;;;;;;6.20;2.37;;;19.30;99.90;;;19.71;58.72;98489.28;5065597;28;20546;-68
2024/04/05 09:06:59;;;;;;;4.07;2.40;;;19.40;99.90;;;19.64;54.30;98491.84;5062094;28;20493;-69
2024/04/05 09:09:34;;;;;;;3.60;2.27;;;19.40;99.90;;;19.51;54.40;98489.84;5082904;28;20235;-69
2024/04/05 09:12:09;;;;;;;3.70;2.43;;;19.40;99.90;;;19.64;54.20;98483.88;5077042;28;20782;-67
2024/04/05 09:14:38;;;;;;;5.03;2.30;;;19.40;99.90;;;19.73;53.54;98474.72;5067271;28;21515;-69
2024/04/05 09:17:13;;;;;;;4.27;2.17;;;19.50;99.90;;;19.87;53.79;98473.06;5066432;28;20439;-68
2024/04/05 09:19:39;;;;;;;4.63;2.60;;;19.60;99.90;;;20.05;54.87;98448.59;5065863;28;20446;-68
2024/04/05 09:22:05;;;;;;;5.13;2.47;;;19.60;99.90;;;20.29;53.15;98448.19;5071903;28;20459;-68
2024/04/05 09:24:32;;;;;;;5.30;2.00;;;19.80;99.90;;;20.35;52.54;98460.75;5066538;28;20459;-67
2024/04/05 09:27:06;;;;;;;5.20;2.57;;;20.00;99.90;;;20.13;51.11;98459.13;5071042;28;20207;-69
2024/04/05 09:29:32;;;;;;;5.33;2.20;;;20.00;99.90;;;20.09;51.67;98456.03;5068904;28;20444;-70
2024/04/05 09:31:58;;;;;;;5.90;2.40;;;20.00;99.90;;;20.18;51.49;98443.38;5061303;28;20443;-68
2024/04/05 09:34:29;;;;;;;3.93;2.30;;;19.90;99.90;;;20.04;50.87;98454.94;5067760;28;20610;-68
2024/04/05 09:36:58;;;;;;;4.30;2.20;;;19.90;99.90;;;20.05;50.69;98456.59;5072016;28;20454;-70
2024/04/05 09:39:25;;;;;;;4.07;2.40;;;19.90;99.90;;;20.24;51.88;98447.94;5088489;28;21074;-69
2024/04/05 09:41:56;;;;;;;5.47;2.40;;;20.00;99.90;;;20.04;51.15;98454.94;5061641;28;20452;-70
2024/04/05 09:44:24;;;;;;;4.87;2.30;;;20.00;99.90;;;20.16;52.25;98448.06;5097352;27;20447;-69
2024/04/05 09:46:54;;;;;;;5.23;2.10;;;19.90;99.90;;;20.44;51.15;98456.09;5095517;28;20452;-69
2024/04/05 09:49:20;;;;;;;5.73;2.10;;;20.10;99.90;;;20.60;49.69;98449.66;5095530;27;20524;-69
2024/04/05 09:51:52;;;;;;;3.63;2.20;;;20.20;99.90;;;20.46;51.41;98442.53;5069345;28;20447;-69
2024/04/05 09:54:22;;;;;;;3.77;2.10;;;20.20;99.90;;;20.65;50.81;98435.72;5075751;28;20268;-69
2024/04/05 09:56:49;;;;;;;4.97;2.57;;;20.30;99.90;;;20.58;50.27;98455.19;5063712;28;20973;-68
2024/04/05 09:59:24;;;;;;;3.10;2.03;;;20.40;99.90;;;20.52;50.26;98468.47;5068975;28;20454;-69
2024/04/05 10:01:52;;;;;;;6.73;2.13;;;20.40;99.90;;;20.60;51.12;98484.38;5073206;28;20522;-69
2024/04/05 10:04:18;;;;;;;6.10;2.20;;;20.40;99.90;;;20.48;50.33;98481.38;5073888;28;20594;-69
2024/04/05 10:06:45;;;;;;;3.83;2.23;;;20.30;99.90;;;20.42;50.55;98471.47;5094421;27;20521;-69
2024/04/05 10:09:20;;;;;;;5.50;2.30;;;20.30;99.90;;;20.39;50.78;98471.84;5077118;28;20574;-71
2024/04/05 10:11:50;;;;;;;4.33;2.20;;;20.30;99.90;;;20.27;51.41;98487.56;5093436;28;20453;-70
2024/04/05 10:14:31;;;;;;;3.70;2.10;;;20.20;99.90;;;20.31;51.16;98490.69;5068228;28;20445;-69
2024/04/05 10:17:09;;;;;;;3.70;2.10;;;20.10;99.90;;;20.33;51.55;98491.28;5076432;28;20843;-69